Time;durP1;ratioP1;P1;durP2;ratioP2;P2;SDS_P1;SDS_P2;PMS_P1;PMS_P2;Temp;Humidity;BMP_temperature;BMP_pressure;BME280_temperature;BME280_humidity;BME280_pressure;Samples;Min_cycle;Max_cycle;Signal;HPM_P1;HPM_P2
2023/04/10 00:00:31;;;;;;;44.17;18.23;;;;;;;;;;5063693;28;20032;-80
2023/04/10 00:03:10;;;;;;;38.90;17.88;;;;;;;;;;5057862;28;20464;-80
2023/04/10 00:05:35;;;;;;;43.60;16.90;;;;;;;;;;5060073;28;20035;-79
2023/04/10 00:08:02;;;;;;;45.53;18.00;;;;;;;;;;5070000;28;20033;-79
2023/04/10 00:10:40;;;;;;;43.45;18.48;;;;;;;;;;5065753;28;20036;-80
2023/04/10 00:13:06;;;;;;;48.55;18.45;;;;;;;;;;5061271;28;20120;-80
2023/04/10 00:15:31;;;;;;;41.47;18.05;;;;;;;;;;5057063;28;20551;-80
2023/04/10 00:18:09;;;;;;;40.90;16.35;;;;;;;;;;5074107;28;20065;-80
2023/04/10 00:20:35;;;;;;;43.03;18.35;;;;;;;;;;5057345;28;20392;-80
2023/04/10 00:23:00;;;;;;;39.95;17.38;;;;;;;;;;5059355;28;20032;-80
2023/04/10 00:25:38;;;;;;;39.80;18.35;;;;;;;;;;5064123;28;20024;-80
2023/04/10 00:28:03;;;;;;;38.28;17.85;;;;;;;;;;5060268;28;20075;-80
2023/04/10 00:30:29;;;;;;;44.38;17.60;;;;;;;;;;5065455;28;20056;-80
2023/04/10 00:33:08;;;;;;;36.15;16.77;;;;;;;;;;5061493;28;20090;-80
2023/04/10 00:35:33;;;;;;;42.28;20.17;;;;;;;;;;5053992;28;20445;-80
2023/04/10 00:37:59;;;;;;;39.70;18.10;;;;;;;;;;5070588;28;20060;-80
2023/04/10 00:40:37;;;;;;;35.88;16.27;;;;;;;;;;5069203;28;20066;-80
2023/04/10 00:43:03;;;;;;;42.05;18.38;;;;;;;;;;5065727;28;20040;-81
2023/04/10 00:45:28;;;;;;;37.60;16.83;;;;;;;;;;5060187;28;20354;-80
2023/04/10 00:48:06;;;;;;;27.80;14.10;;;;;;;;;;5068318;28;20036;-80
2023/04/10 00:50:32;;;;;;;30.52;15.90;;;;;;;;;;5050892;28;20077;-81
2023/04/10 00:52:57;;;;;;;28.48;14.32;;;;;;;;;;5059737;28;20060;-80
2023/04/10 00:55:36;;;;;;;34.58;14.77;;;;;;;;;;5060355;28;20116;-80
2023/04/10 00:58:02;;;;;;;25.00;12.85;;;;;;;;;;5077770;28;20064;-80
2023/04/10 01:00:27;;;;;;;24.25;12.45;;;;;;;;;;5076355;28;20407;-80
2023/04/10 01:03:06;;;;;;;25.80;13.05;;;;;;;;;;5083599;28;20482;-80
2023/04/10 01:05:56;;;;;;;30.88;13.68;;;;;;;;;;5093336;28;20032;-81
2023/04/10 01:08:44;;;;;;;22.45;10.02;;;;;;;;;;5082146;28;20036;-80
2023/04/10 01:11:20;;;;;;;22.65;10.20;;;;;;;;;;5082956;28;20041;-80
2023/04/10 01:14:07;;;;;;;25.85;11.75;;;;;;;;;;5072831;28;20035;-80
2023/04/10 01:16:52;;;;;;;20.77;11.27;;;;;;;;;;5080927;28;20044;-80
2023/04/10 01:19:39;;;;;;;20.60;10.75;;;;;;;;;;5068347;28;20086;-79
2023/04/10 01:22:10;;;;;;;22.33;10.52;;;;;;;;;;5079277;28;20043;-80
2023/04/10 01:25:25;;;;;;;18.48;10.35;;;;;;;;;;5084837;28;20074;-80
2023/04/10 01:28:06;;;;;;;16.65;8.63;;;;;;;;;;5062249;28;20098;-80
2023/04/10 01:30:44;;;;;;;17.13;9.60;;;;;;;;;;5079093;28;20033;-79
2023/04/10 01:33:12;;;;;;;16.10;8.95;;;;;;;;;;5064221;28;20044;-80
2023/04/10 01:35:55;;;;;;;17.67;8.82;;;;;;;;;;5079676;28;20021;-80
2023/04/10 01:38:23;;;;;;;19.73;8.90;;;;;;;;;;5066059;28;20439;-80
2023/04/10 01:40:54;;;;;;;16.55;8.82;;;;;;;;;;5075103;28;20028;-80
2023/04/10 01:43:27;;;;;;;15.88;7.65;;;;;;;;;;5078114;28;20048;-79
2023/04/10 01:45:53;;;;;;;18.73;8.63;;;;;;;;;;5082567;28;20047;-79
2023/04/10 01:48:25;;;;;;;17.00;9.02;;;;;;;;;;5079302;28;20080;-80
2023/04/10 01:50:57;;;;;;;20.10;8.77;;;;;;;;;;5076376;28;20126;-79
2023/04/10 01:53:23;;;;;;;17.15;8.05;;;;;;;;;;5085875;28;20048;-80
2023/04/10 01:55:54;;;;;;;18.52;7.85;;;;;;;;;;5082764;28;20720;-80
2023/04/10 01:58:26;;;;;;;13.95;7.05;;;;;;;;;;5094760;28;20054;-80
2023/04/10 02:00:51;;;;;;;13.48;6.80;;;;;;;;;;5114728;28;20038;-81
2023/04/10 02:03:23;;;;;;;13.95;6.65;;;;;;;;;;5097856;28;20028;-80
2023/04/10 02:06:15;;;;;;;17.75;6.28;;;;;;;;;;5093850;28;20048;-80
2023/04/10 02:08:53;;;;;;;12.45;6.78;;;;;;;;;;5095722;28;20051;-79
2023/04/10 02:11:43;;;;;;;9.75;4.93;;;;;;;;;;5075398;28;20386;-79
2023/04/10 02:14:17;;;;;;;14.30;7.45;;;;;;;;;;5077892;28;20036;-79
2023/04/10 02:16:43;;;;;;;19.95;7.93;;;;;;;;;;5071318;28;20486;-80
2023/04/10 02:19:16;;;;;;;22.40;8.55;;;;;;;;;;5087621;28;20078;-80
2023/04/10 02:21:50;;;;;;;18.40;7.85;;;;;;;;;;5080826;28;20119;-80
2023/04/10 02:24:15;;;;;;;16.48;8.07;;;;;;;;;;5084597;28;20040;-80
2023/04/10 02:26:55;;;;;;;18.30;8.25;;;;;;;;;;5107552;28;20536;-80
2023/04/10 02:29:26;;;;;;;16.88;7.60;;;;;;;;;;5071241;28;20065;-79
2023/04/10 02:31:52;;;;;;;18.90;7.93;;;;;;;;;;5110631;28;20066;-79
2023/04/10 02:34:23;;;;;;;14.68;7.38;;;;;;;;;;5111168;28;20092;-79
2023/04/10 02:36:55;;;;;;;17.55;8.00;;;;;;;;;;5108800;28;20085;-80
2023/04/10 02:39:21;;;;;;;16.25;7.38;;;;;;;;;;5108190;28;20116;-80
2023/04/10 02:41:52;;;;;;;16.60;7.60;;;;;;;;;;5112848;28;20110;-80
2023/04/10 02:44:24;;;;;;;10.65;5.70;;;;;;;;;;5111049;28;20514;-80
2023/04/10 02:46:50;;;;;;;15.30;7.00;;;;;;;;;;5114476;28;20039;-80
2023/04/10 02:49:21;;;;;;;13.55;6.57;;;;;;;;;;5101568;28;20040;-80
2023/04/10 02:51:53;;;;;;;12.95;6.00;;;;;;;;;;5092608;28;20122;-80
2023/04/10 02:54:19;;;;;;;11.52;6.40;;;;;;;;;;5110467;28;20036;-80
2023/04/10 02:56:50;;;;;;;13.48;6.20;;;;;;;;;;5098198;28;20392;-80
2023/04/10 02:59:22;;;;;;;13.30;5.85;;;;;;;;;;5100579;28;20067;-80
2023/04/10 03:01:49;;;;;;;14.20;5.75;;;;;;;;;;5086059;28;20488;-80
2023/04/10 03:04:21;;;;;;;9.35;4.75;;;;;;;;;;5093654;28;20038;-80
2023/04/10 03:06:54;;;;;;;7.75;4.43;;;;;;;;;;5097088;28;20036;-80
2023/04/10 03:09:19;;;;;;;9.63;4.50;;;;;;;;;;5109570;28;20395;-80
2023/04/10 03:11:51;;;;;;;8.63;4.07;;;;;;;;;;5097077;28;20032;-80
2023/04/10 03:14:23;;;;;;;6.57;4.10;;;;;;;;;;5101001;28;20040;-80
2023/04/10 03:16:49;;;;;;;5.68;3.40;;;;;;;;;;5095266;28;20059;-79
2023/04/10 03:19:21;;;;;;;6.28;3.30;;;;;;;;;;5108621;28;20059;-80
2023/04/10 03:21:54;;;;;;;6.70;3.65;;;;;;;;;;5105848;28;20059;-80
2023/04/10 03:24:19;;;;;;;6.90;3.20;;;;;;;;;;5087021;28;20070;-80
2023/04/10 03:26:51;;;;;;;14.05;3.60;;;;;;;;;;5098434;28;20047;-80
2023/04/10 03:29:23;;;;;;;4.95;2.78;;;;;;;;;;5102441;28;20059;-80
2023/04/10 03:31:49;;;;;;;6.75;3.22;;;;;;;;;;5106146;28;20043;-80
2023/04/10 03:34:21;;;;;;;5.30;3.00;;;;;;;;;;5105671;28;20028;-80
2023/04/10 03:36:53;;;;;;;6.45;3.58;;;;;;;;;;5113302;28;20490;-80
2023/04/10 03:39:19;;;;;;;6.25;3.80;;;;;;;;;;5108330;28;20059;-81
2023/04/10 03:41:51;;;;;;;6.55;3.35;;;;;;;;;;5097848;28;20459;-79
2023/04/10 03:44:23;;;;;;;6.72;3.78;;;;;;;;;;5098564;28;20042;-80
2023/04/10 03:46:49;;;;;;;6.20;3.22;;;;;;;;;;5094409;28;20432;-80
2023/04/10 03:49:20;;;;;;;5.60;3.30;;;;;;;;;;5099654;28;20062;-80
2023/04/10 03:51:52;;;;;;;7.05;3.42;;;;;;;;;;5108171;28;20046;-80
2023/04/10 03:54:18;;;;;;;4.88;3.08;;;;;;;;;;5113178;28;20070;-80
2023/04/10 03:56:49;;;;;;;5.68;3.40;;;;;;;;;;5095705;28;20087;-80
2023/04/10 03:59:21;;;;;;;5.80;2.65;;;;;;;;;;5094405;28;20042;-80
2023/04/10 04:01:47;;;;;;;6.15;3.33;;;;;;;;;;5087747;28;20499;-80
2023/04/10 04:04:18;;;;;;;5.30;3.15;;;;;;;;;;5098691;28;20024;-80
2023/04/10 04:06:51;;;;;;;4.53;2.92;;;;;;;;;;5104795;28;20499;-80
2023/04/10 04:09:16;;;;;;;5.35;2.80;;;;;;;;;;5098963;28;20044;-79
2023/04/10 04:11:48;;;;;;;3.45;2.20;;;;;;;;;;5108752;28;20032;-79
2023/04/10 04:14:22;;;;;;;5.22;2.40;;;;;;;;;;5109614;28;20043;-80
2023/04/10 04:16:47;;;;;;;3.80;2.42;;;;;;;;;;5109398;28;20476;-80
2023/04/10 04:19:19;;;;;;;3.28;2.05;;;;;;;;;;5085070;28;20119;-80
2023/04/10 04:21:51;;;;;;;4.72;1.95;;;;;;;;;;5102904;28;20087;-81
2023/04/10 04:24:17;;;;;;;3.40;1.92;;;;;;;;;;5110664;28;20514;-80
2023/04/10 04:26:48;;;;;;;3.33;1.90;;;;;;;;;;5107038;28;20036;-80
2023/04/10 04:29:21;;;;;;;3.15;1.60;;;;;;;;;;5110692;28;20073;-80
2023/04/10 04:31:46;;;;;;;2.75;1.60;;;;;;;;;;5111918;28;20092;-80
2023/04/10 04:34:17;;;;;;;2.53;1.52;;;;;;;;;;5091062;28;20032;-79
2023/04/10 04:36:50;;;;;;;3.72;1.75;;;;;;;;;;5105333;28;20040;-80
2023/04/10 04:39:15;;;;;;;3.47;1.98;;;;;;;;;;5108667;28;20104;-80
2023/04/10 04:41:47;;;;;;;2.38;1.42;;;;;;;;;;5108908;28;20471;-80
2023/04/10 04:44:19;;;;;;;2.70;1.70;;;;;;;;;;5102186;28;20047;-81
2023/04/10 04:46:45;;;;;;;2.88;1.58;;;;;;;;;;5099236;28;20071;-80
2023/04/10 04:49:17;;;;;;;5.47;1.55;;;;;;;;;;5092799;28;20400;-80
2023/04/10 04:51:49;;;;;;;4.40;1.80;;;;;;;;;;5099021;28;20039;-80
2023/04/10 04:54:15;;;;;;;2.92;1.80;;;;;;;;;;5096339;28;20036;-80
2023/04/10 04:56:46;;;;;;;4.05;1.67;;;;;;;;;;5097015;28;20031;-80
2023/04/10 04:59:18;;;;;;;3.67;1.70;;;;;;;;;;5094222;28;20062;-80
2023/04/10 05:01:44;;;;;;;4.45;1.70;;;;;;;;;;5096139;28;20032;-80
2023/04/10 05:04:15;;;;;;;3.63;1.80;;;;;;;;;;5101974;28;20035;-80
2023/04/10 05:06:47;;;;;;;3.90;1.25;;;;;;;;;;5101560;28;20040;-80
2023/04/10 05:09:13;;;;;;;4.13;1.60;;;;;;;;;;5102445;28;20080;-81
2023/04/10 05:11:44;;;;;;;2.80;1.50;;;;;;;;;;5114154;28;20115;-80
2023/04/10 05:14:16;;;;;;;4.10;1.42;;;;;;;;;;5097713;28;20129;-80
2023/04/10 05:16:42;;;;;;;3.55;1.35;;;;;;;;;;5079661;28;20472;-79
2023/04/10 05:19:13;;;;;;;4.43;1.45;;;;;;;;;;5102542;28;20038;-80
2023/04/10 05:21:45;;;;;;;3.97;1.75;;;;;;;;;;5101393;28;20081;-79
2023/04/10 05:24:11;;;;;;;3.08;1.83;;;;;;;;;;5100712;28;20043;-80
2023/04/10 05:26:42;;;;;;;4.22;1.70;;;;;;;;;;5105177;28;20425;-80
2023/04/10 05:29:15;;;;;;;2.40;1.27;;;;;;;;;;5104402;28;20039;-80
2023/04/10 05:31:40;;;;;;;3.17;1.27;;;;;;;;;;5102935;28;20039;-79
2023/04/10 05:34:11;;;;;;;3.92;1.17;;;;;;;;;;5102095;28;20031;-80
2023/04/10 05:36:44;;;;;;;2.97;1.13;;;;;;;;;;5093474;28;20040;-80
2023/04/10 05:39:09;;;;;;;2.72;1.20;;;;;;;;;;5107223;28;20043;-80
2023/04/10 05:41:41;;;;;;;4.00;1.30;;;;;;;;;;5084341;28;20027;-79
2023/04/10 05:44:13;;;;;;;4.00;1.15;;;;;;;;;;5104544;28;20050;-80
2023/04/10 05:46:39;;;;;;;1.77;1.08;;;;;;;;;;5086778;28;20035;-80
2023/04/10 05:49:10;;;;;;;2.15;1.33;;;;;;;;;;5108083;28;20028;-80
2023/04/10 05:51:42;;;;;;;4.38;1.15;;;;;;;;;;5087548;28;20047;-80
2023/04/10 05:54:08;;;;;;;2.67;1.15;;;;;;;;;;5102573;28;20040;-80
2023/04/10 05:56:39;;;;;;;2.13;1.15;;;;;;;;;;5102210;28;20032;-80
2023/04/10 05:59:12;;;;;;;4.72;1.70;;;;;;;;;;5089990;28;20395;-80
2023/04/10 06:01:38;;;;;;;6.32;2.20;;;;;;;;;;5090315;28;20036;-80
2023/04/10 06:04:10;;;;;;;6.20;1.50;;;;;;;;;;5107173;28;20063;-80
2023/04/10 06:06:42;;;;;;;2.45;1.35;;;;;;;;;;5106025;28;20054;-80
2023/04/10 06:09:08;;;;;;;3.40;1.85;;;;;;;;;;5090646;28;20440;-80
2023/04/10 06:11:40;;;;;;;4.45;2.03;;;;;;;;;;5113177;28;20110;-80
2023/04/10 06:14:12;;;;;;;3.00;1.42;;;;;;;;;;5108649;28;20480;-80
2023/04/10 06:16:38;;;;;;;3.45;1.40;;;;;;;;;;5090489;28;20045;-80
2023/04/10 06:19:09;;;;;;;4.07;1.67;;;;;;;;;;5102987;28;20036;-79
2023/04/10 06:21:41;;;;;;;3.00;1.10;;;;;;;;;;5103646;28;20040;-80
2023/04/10 06:24:07;;;;;;;5.78;2.13;;;;;;;;;;5107354;28;20067;-80
2023/04/10 06:26:38;;;;;;;5.53;2.00;;;;;;;;;;5110916;28;20432;-79
2023/04/10 06:29:11;;;;;;;3.55;1.65;;;;;;;;;;5084816;28;20484;-79
2023/04/10 06:31:36;;;;;;;7.78;2.58;;;;;;;;;;5104777;28;20042;-79
2023/04/10 06:34:08;;;;;;;4.32;1.73;;;;;;;;;;5075459;28;20114;-79
2023/04/10 06:36:41;;;;;;;3.17;1.23;;;;;;;;;;5110194;28;20071;-80
2023/04/10 06:39:06;;;;;;;3.28;0.80;;;;;;;;;;5065346;28;20388;-80
2023/04/10 06:41:38;;;;;;;0.93;0.57;;;;;;;;;;5097210;28;20031;-80
2023/04/10 06:44:10;;;;;;;3.42;1.10;;;;;;;;;;5082806;28;20074;-80
2023/04/10 06:46:36;;;;;;;1.90;0.70;;;;;;;;;;5081819;28;20036;-80
2023/04/10 06:49:08;;;;;;;4.75;1.30;;;;;;;;;;5084837;28;20019;-79
2023/04/10 06:51:40;;;;;;;3.88;1.33;;;;;;;;;;5096403;28;20070;-80
2023/04/10 06:54:06;;;;;;;6.50;2.80;;;;;;;;;;5105529;28;20471;-80
2023/04/10 06:56:37;;;;;;;4.13;1.80;;;;;;;;;;5102068;28;20072;-80
2023/04/10 06:59:09;;;;;;;3.45;1.38;;;;;;;;;;5094243;28;20055;-80
2023/04/10 07:01:35;;;;;;;16.70;6.38;;;;;;;;;;5114093;28;20027;-80
2023/04/10 07:04:07;;;;;;;37.92;10.82;;;;;;;;;;5082892;28;20504;-79
2023/04/10 07:06:39;;;;;;;37.35;11.82;;;;;;;;;;5099676;28;20036;-80
2023/04/10 07:09:05;;;;;;;9.10;4.55;;;;;;;;;;5097137;28;20051;-79
2023/04/10 07:11:36;;;;;;;8.27;3.58;;;;;;;;;;5102578;28;20031;-80
2023/04/10 07:14:09;;;;;;;5.82;1.90;;;;;;;;;;5106765;28;20058;-79
2023/04/10 07:16:34;;;;;;;3.78;1.85;;;;;;;;;;5086541;28;20044;-80
2023/04/10 07:19:05;;;;;;;3.00;1.65;;;;;;;;;;5100109;28;20019;-80
2023/04/10 07:21:37;;;;;;;2.17;1.13;;;;;;;;;;5088832;28;20032;-80
2023/04/10 07:24:03;;;;;;;2.53;1.25;;;;;;;;;;5101210;28;20043;-80
2023/04/10 07:26:34;;;;;;;3.60;1.38;;;;;;;;;;5083146;28;20388;-79
2023/04/10 07:29:08;;;;;;;4.00;1.40;;;;;;;;;;5091146;28;20043;-79
2023/04/10 07:31:33;;;;;;;3.60;1.67;;;;;;;;;;5088840;28;20452;-79
2023/04/10 07:34:05;;;;;;;3.22;0.90;;;;;;;;;;5101473;28;20114;-80
2023/04/10 07:36:38;;;;;;;1.58;0.85;;;;;;;;;;5106862;28;20126;-80
2023/04/10 07:39:03;;;;;;;3.15;0.82;;;;;;;;;;5108334;28;20036;-80
2023/04/10 07:41:35;;;;;;;1.50;0.80;;;;;;;;;;5104770;28;20118;-80
2023/04/10 07:44:07;;;;;;;1.65;0.80;;;;;;;;;;5088203;28;20114;-80
2023/04/10 07:46:33;;;;;;;1.40;0.65;;;;;;;;;;5110904;28;20040;-80
2023/04/10 07:49:04;;;;;;;1.63;0.70;;;;;;;;;;5106211;28;20478;-81
2023/04/10 07:51:36;;;;;;;3.38;0.75;;;;;;;;;;5104336;28;20067;-80
2023/04/10 07:54:03;;;;;;;2.97;1.05;;;;;;;;;;5106167;28;20036;-80
2023/04/10 07:56:35;;;;;;;3.42;0.93;;;;;;;;;;5091309;28;20036;-80
2023/04/10 07:59:06;;;;;;;6.28;1.58;;;;;;;;;;5105091;28;20507;-80
2023/04/10 08:01:32;;;;;;;3.50;1.02;;;;;;;;;;5079063;28;20044;-80
2023/04/10 08:04:04;;;;;;;4.25;1.00;;;;;;;;;;5110989;28;20068;-80
2023/04/10 08:06:36;;;;;;;8.45;1.35;;;;;;;;;;5107352;28;20067;-80
2023/04/10 08:09:02;;;;;;;2.78;0.80;;;;;;;;;;5112727;28;20372;-79
2023/04/10 08:11:39;;;;;;;9.85;1.20;;;;;;;;;;5099890;28;20032;-80
2023/04/10 08:14:12;;;;;;;3.15;1.05;;;;;;;;;;5100466;28;20036;-79
2023/04/10 08:16:38;;;;;;;4.55;0.90;;;;;;;;;;5108597;28;20118;-80
2023/04/10 08:19:09;;;;;;;2.35;0.80;;;;;;;;;;5111011;28;20103;-79
2023/04/10 08:21:41;;;;;;;4.07;1.02;;;;;;;;;;5094892;28;20509;-79
2023/04/10 08:24:07;;;;;;;6.55;1.10;;;;;;;;;;5109680;28;20036;-80
2023/04/10 08:26:38;;;;;;;5.07;1.40;;;;;;;;;;5105767;28;20032;-80
2023/04/10 08:29:10;;;;;;;4.43;1.10;;;;;;;;;;5098150;28;20043;-80
2023/04/10 08:31:36;;;;;;;6.57;1.60;;;;;;;;;;5099146;28;20036;-80
2023/04/10 08:34:07;;;;;;;4.00;1.05;;;;;;;;;;5100765;28;20039;-80
2023/04/10 08:36:39;;;;;;;2.95;0.93;;;;;;;;;;5097059;28;20067;-80
2023/04/10 08:39:05;;;;;;;4.80;1.15;;;;;;;;;;5109023;28;20036;-80
2023/04/10 08:41:36;;;;;;;4.43;1.08;;;;;;;;;;5103444;28;20387;-79
2023/04/10 08:44:09;;;;;;;1.92;0.80;;;;;;;;;;5109151;28;20051;-79
2023/04/10 08:46:35;;;;;;;4.00;1.77;;;;;;;;;;5103763;28;20119;-80
2023/04/10 08:49:09;;;;;;;6.43;0.95;;;;;;;;;;5093515;28;20027;-80
2023/04/10 08:51:45;;;;;;;5.20;1.45;;;;;;;;;;5103371;28;20040;-80
2023/04/10 08:54:24;;;;;;;6.25;1.50;;;;;;;;;;5087678;28;20476;-80
2023/04/10 08:56:57;;;;;;;7.78;1.50;;;;;;;;;;5099864;28;20035;-80
2023/04/10 08:59:23;;;;;;;3.40;1.38;;;;;;;;;;5113573;28;20394;-81
2023/04/10 09:01:55;;;;;;;6.22;1.60;;;;;;;;;;5084825;28;20036;-80
2023/04/10 09:04:28;;;;;;;5.97;1.23;;;;;;;;;;5110599;28;20357;-81
2023/04/10 09:06:53;;;;;;;10.00;1.73;;;;;;;;;;5100874;28;20023;-81
2023/04/10 09:09:26;;;;;;;8.75;1.48;;;;;;;;;;5099832;28;20356;-81
2023/04/10 09:11:59;;;;;;;10.30;1.53;;;;;;;;;;5109332;28;20044;-82
2023/04/10 09:14:33;;;;;;;11.32;3.47;;;;;;;;;;5095344;28;20474;-81
2023/04/10 09:17:10;;;;;;;8.98;1.83;;;;;;;;;;5088101;28;20122;-80
2023/04/10 09:19:42;;;;;;;16.88;2.63;;;;;;;;;;5105300;28;20062;-81
2023/04/10 09:22:15;;;;;;;13.95;2.10;;;;;;;;;;5107806;28;20043;-81
2023/04/10 09:24:42;;;;;;;8.23;1.40;;;;;;;;;;5094088;28;20530;-81
2023/04/10 09:27:14;;;;;;;14.38;2.13;;;;;;;;;;5109287;28;20066;-81
2023/04/10 09:29:47;;;;;;;14.07;3.70;;;;;;;;;;5088962;28;20115;-82
2023/04/10 09:32:30;;;;;;;9.73;2.97;;;;;;;;;;5096521;28;20040;-82
2023/04/10 09:35:04;;;;;;;10.65;1.80;;;;;;;;;;5082403;28;20395;-83
2023/04/10 09:37:41;;;;;;;8.13;2.42;;;;;;;;;;5099563;28;20032;-81
2023/04/10 09:40:25;;;;;;;8.93;1.92;;;;;;;;;;5101153;28;20039;-81
2023/04/10 09:42:58;;;;;;;12.40;2.40;;;;;;;;;;5111916;28;20036;-81
2023/04/10 09:45:46;;;;;;;11.05;2.38;;;;;;;;;;5084604;28;20506;-81
2023/04/10 09:48:17;;;;;;;12.00;2.05;;;;;;;;;;5096793;28;20042;-82
2023/04/10 09:50:50;;;;;;;12.10;1.85;;;;;;;;;;5100981;28;20460;-81
2023/04/10 09:53:24;;;;;;;7.13;2.08;;;;;;;;;;5084992;28;20048;-81
2023/04/10 09:55:57;;;;;;;12.63;2.08;;;;;;;;;;5098916;28;20036;-81
2023/04/10 09:58:23;;;;;;;10.38;2.35;;;;;;;;;;5081690;28;20489;-81
2023/04/10 10:00:55;;;;;;;10.63;2.55;;;;;;;;;;5080237;28;20036;-81
2023/04/10 10:03:28;;;;;;;11.63;2.53;;;;;;;;;;5077041;28;20037;-83
2023/04/10 10:05:53;;;;;;;12.13;2.28;;;;;;;;;;5085901;28;20044;-83
2023/04/10 10:08:26;;;;;;;11.77;2.20;;;;;;;;;;5079004;28;20430;-82
2023/04/10 10:10:59;;;;;;;9.93;1.85;;;;;;;;;;5078428;28;20040;-81
2023/04/10 10:13:51;;;;;;;12.32;2.67;;;;;;;;;;5088571;28;20036;-82
2023/04/10 10:16:25;;;;;;;9.10;2.13;;;;;;;;;;5092646;28;20036;-81
2023/04/10 10:19:09;;;;;;;12.88;2.38;;;;;;;;;;5084862;28;20059;-81
2023/04/10 10:21:43;;;;;;;10.20;2.92;;;;;;;;;;5080343;28;20040;-82
2023/04/10 10:24:15;;;;;;;14.25;2.33;;;;;;;;;;5067958;28;20127;-82
2023/04/10 10:26:48;;;;;;;14.25;2.28;;;;;;;;;;5072859;28;20036;-81
2023/04/10 10:29:16;;;;;;;10.82;2.00;;;;;;;;;;5085389;28;20054;-81
2023/04/10 10:31:48;;;;;;;11.82;2.10;;;;;;;;;;5094280;28;20036;-82
2023/04/10 10:34:21;;;;;;;9.57;2.23;;;;;;;;;;5086192;28;20043;-81
2023/04/10 10:36:46;;;;;;;12.85;2.60;;;;;;;;;;5078122;28;20093;-81
2023/04/10 10:39:44;;;;;;;16.02;2.67;;;;;;;;;;5080153;28;20460;-81
2023/04/10 10:42:37;;;;;;;15.05;2.10;;;;;;;;;;5072877;28;20106;-81
2023/04/10 10:45:13;;;;;;;12.55;2.08;;;;;;;;;;5078284;28;20393;-81
2023/04/10 10:47:53;;;;;;;9.32;1.58;;;;;;;;;;5071006;28;20055;-81
2023/04/10 10:50:24;;;;;;;9.60;1.88;;;;;;;;;;5080649;28;20040;-80
2023/04/10 10:52:56;;;;;;;9.50;2.28;;;;;;;;;;5077869;28;20028;-80
2023/04/10 10:55:30;;;;;;;10.30;1.75;;;;;;;;;;5081096;28;20032;-81
2023/04/10 10:58:12;;;;;;;11.52;2.05;;;;;;;;;;5089406;28;20087;-81
2023/04/10 11:00:49;;;;;;;11.30;1.75;;;;;;;;;;5092031;28;20510;-81
2023/04/10 11:03:27;;;;;;;6.75;1.90;;;;;;;;;;5103477;28;20031;-82
2023/04/10 11:05:58;;;;;;;8.52;2.22;;;;;;;;;;5103382;28;20039;-80
2023/04/10 11:08:45;;;;;;;11.70;2.30;;;;;;;;;;5085625;28;20048;-81
2023/04/10 11:11:19;;;;;;;14.75;2.47;;;;;;;;;;5104851;28;20039;-81
2023/04/10 11:14:00;;;;;;;12.73;2.10;;;;;;;;;;5080671;28;20475;-81
2023/04/10 11:16:30;;;;;;;13.10;1.88;;;;;;;;;;5094781;28;20402;-82
2023/04/10 11:19:12;;;;;;;8.85;1.77;;;;;;;;;;5103297;28;20097;-81
2023/04/10 11:22:07;;;;;;;14.43;2.20;;;;;;;;;;5100455;28;20039;-82
2023/04/10 11:24:58;;;;;;;7.15;1.75;;;;;;;;;;5091254;28;20044;-81
2023/04/10 11:27:40;;;;;;;9.32;1.85;;;;;;;;;;5081277;28;20527;-81
2023/04/10 11:30:40;;;;;;;12.70;1.88;;;;;;;;;;5077786;28;20384;-81
2023/04/10 11:33:05;;;;;;;7.75;1.35;;;;;;;;;;5062847;28;20388;-82
2023/04/10 11:35:37;;;;;;;8.52;1.58;;;;;;;;;;5087073;28;20027;-81
2023/04/10 11:38:21;;;;;;;7.90;1.73;;;;;;;;;;5107122;28;20114;-81
2023/04/10 11:40:58;;;;;;;8.02;1.40;;;;;;;;;;5112741;28;20046;-80
2023/04/10 11:43:29;;;;;;;8.23;1.60;;;;;;;;;;5112016;28;20114;-81
2023/04/10 11:46:06;;;;;;;11.68;1.80;;;;;;;;;;5100941;28;20074;-80
2023/04/10 11:48:38;;;;;;;7.28;1.38;;;;;;;;;;5089044;28;20035;-81
2023/04/10 11:51:12;;;;;;;11.93;1.77;;;;;;;;;;5078700;28;20089;-81
2023/04/10 11:53:38;;;;;;;12.55;1.70;;;;;;;;;;5103376;28;20068;-80
2023/04/10 11:56:10;;;;;;;14.30;2.03;;;;;;;;;;5098848;28;20436;-80
2023/04/10 11:58:43;;;;;;;11.52;1.95;;;;;;;;;;5095000;28;20052;-80
2023/04/10 12:01:13;;;;;;;13.40;2.13;;;;;;;;;;5106011;28;20038;-81
2023/04/10 12:03:46;;;;;;;9.80;1.55;;;;;;;;;;5096941;28;20024;-80
2023/04/10 12:06:19;;;;;;;16.88;2.08;;;;;;;;;;5111340;28;20383;-80
2023/04/10 12:08:48;;;;;;;16.02;2.38;;;;;;;;;;5111786;28;20040;-81
2023/04/10 12:11:20;;;;;;;6.22;1.63;;;;;;;;;;5086047;28;20032;-81
2023/04/10 12:13:55;;;;;;;11.15;1.60;;;;;;;;;;5105221;28;20035;-81
2023/04/10 12:16:28;;;;;;;8.63;2.05;;;;;;;;;;5084014;28;20541;-81
2023/04/10 12:19:01;;;;;;;9.07;1.60;;;;;;;;;;5071552;28;20047;-81
2023/04/10 12:21:26;;;;;;;10.68;1.48;;;;;;;;;;5084661;28;20101;-81
2023/04/10 12:23:58;;;;;;;5.85;1.60;;;;;;;;;;5109598;28;20114;-81
2023/04/10 12:26:31;;;;;;;6.45;1.17;;;;;;;;;;5095690;28;20044;-81
2023/04/10 12:28:57;;;;;;;2.83;1.00;;;;;;;;;;5107862;28;20489;-81
2023/04/10 12:31:46;;;;;;;5.28;1.20;;;;;;;;;;5088079;28;20136;-80
2023/04/10 12:34:17;;;;;;;2.88;0.90;;;;;;;;;;5083955;28;20055;-81
2023/04/10 12:36:58;;;;;;;4.55;1.42;;;;;;;;;;5104494;28;20073;-81
2023/04/10 12:39:24;;;;;;;3.83;0.98;;;;;;;;;;5106774;28;20042;-81
2023/04/10 12:42:19;;;;;;;5.25;0.93;;;;;;;;;;5089058;28;20387;-80
2023/04/10 12:44:56;;;;;;;4.90;1.10;;;;;;;;;;5087899;28;20039;-81
2023/04/10 12:47:34;;;;;;;3.22;1.27;;;;;;;;;;5078841;28;20038;-81
2023/04/10 12:50:07;;;;;;;6.05;1.20;;;;;;;;;;5101865;28;20050;-80
2023/04/10 12:52:49;;;;;;;1.58;0.80;;;;;;;;;;5111547;28;20032;-81
2023/04/10 12:55:17;;;;;;;2.65;0.77;;;;;;;;;;5113494;28;20039;-81
2023/04/10 12:57:50;;;;;;;3.78;0.90;;;;;;;;;;5115709;28;20126;-81
2023/04/10 13:00:25;;;;;;;5.10;0.95;;;;;;;;;;5098623;28;20132;-81
2023/04/10 13:02:56;;;;;;;5.85;1.00;;;;;;;;;;5098015;28;20051;-80
2023/04/10 13:05:24;;;;;;;5.70;1.20;;;;;;;;;;5113519;28;20040;-81
2023/04/10 13:07:55;;;;;;;3.65;1.08;;;;;;;;;;5077188;28;20468;-81
2023/04/10 13:10:28;;;;;;;3.55;0.90;;;;;;;;;;5084374;28;20063;-81
2023/04/10 13:12:53;;;;;;;3.05;1.10;;;;;;;;;;5100273;28;20497;-81
2023/04/10 13:15:24;;;;;;;3.92;0.95;;;;;;;;;;5098467;28;20062;-81
2023/04/10 13:17:57;;;;;;;11.13;1.40;;;;;;;;;;5101740;28;20063;-80
2023/04/10 13:20:22;;;;;;;5.78;1.02;;;;;;;;;;5098998;28;20031;-81
2023/04/10 13:22:53;;;;;;;7.47;1.20;;;;;;;;;;5101414;28;20028;-81
2023/04/10 13:25:26;;;;;;;5.60;1.40;;;;;;;;;;5097960;28;20035;-82
2023/04/10 13:27:51;;;;;;;7.83;1.20;;;;;;;;;;5099919;28;20074;-81
2023/04/10 13:30:23;;;;;;;4.78;1.35;;;;;;;;;;5099355;28;20117;-81
2023/04/10 13:32:56;;;;;;;9.07;1.50;;;;;;;;;;5097826;28;20047;-80
2023/04/10 13:35:21;;;;;;;6.47;1.50;;;;;;;;;;5110393;28;20428;-81
2023/04/10 13:37:53;;;;;;;4.28;0.90;;;;;;;;;;5087913;28;20032;-80
2023/04/10 13:40:25;;;;;;;6.95;1.30;;;;;;;;;;5110834;28;20042;-80
2023/04/10 13:42:50;;;;;;;9.70;1.35;;;;;;;;;;5108651;28;20080;-81
2023/04/10 13:45:21;;;;;;;8.68;1.25;;;;;;;;;;5107756;28;20032;-81
2023/04/10 13:47:54;;;;;;;7.05;1.40;;;;;;;;;;5102655;28;20383;-80
2023/04/10 13:50:19;;;;;;;9.20;1.40;;;;;;;;;;5109972;28;20044;-81
2023/04/10 13:52:51;;;;;;;5.57;1.15;;;;;;;;;;5106719;28;20081;-81
2023/04/10 13:55:24;;;;;;;9.18;1.30;;;;;;;;;;5112482;28;20039;-81
2023/04/10 13:57:49;;;;;;;9.85;1.45;;;;;;;;;;5110066;28;20039;-81
2023/04/10 14:00:22;;;;;;;9.65;1.85;;;;;;;;;;5105018;28;20683;-81
2023/04/10 14:02:54;;;;;;;6.35;1.50;;;;;;;;;;5105837;28;20039;-81
2023/04/10 14:05:19;;;;;;;4.68;1.15;;;;;;;;;;5102212;28;20105;-81
2023/04/10 14:07:55;;;;;;;7.47;1.73;;;;;;;;;;5110199;28;20065;-81
2023/04/10 14:10:27;;;;;;;5.15;1.10;;;;;;;;;;5107643;28;20054;-81
2023/04/10 14:12:58;;;;;;;11.68;1.30;;;;;;;;;;5114293;28;20032;-80
2023/04/10 14:15:24;;;;;;;7.30;1.60;;;;;;;;;;5105086;28;20047;-81
2023/04/10 14:17:56;;;;;;;6.78;1.23;;;;;;;;;;5111478;28;20028;-80
2023/04/10 14:20:27;;;;;;;7.43;1.00;;;;;;;;;;5102228;28;20043;-81
2023/04/10 14:22:53;;;;;;;9.77;1.88;;;;;;;;;;5096086;28;20070;-81
2023/04/10 14:25:25;;;;;;;4.15;1.35;;;;;;;;;;5110959;28;20024;-81
2023/04/10 14:27:56;;;;;;;10.10;1.70;;;;;;;;;;5114804;28;20056;-81
2023/04/10 14:30:23;;;;;;;15.48;2.17;;;;;;;;;;5094850;28;20035;-81
2023/04/10 14:32:55;;;;;;;5.25;1.30;;;;;;;;;;5102375;28;20078;-80
2023/04/10 14:35:27;;;;;;;15.02;2.35;;;;;;;;;;5103380;28;20036;-81
2023/04/10 14:37:54;;;;;;;11.13;1.52;;;;;;;;;;5084828;28;20046;-81
2023/04/10 14:40:26;;;;;;;11.32;1.48;;;;;;;;;;5102029;28;20118;-80
2023/04/10 14:42:57;;;;;;;8.20;1.42;;;;;;;;;;5098305;28;20046;-80
2023/04/10 14:45:24;;;;;;;9.23;1.45;;;;;;;;;;5104115;28;20043;-81
2023/04/10 14:47:56;;;;;;;5.95;1.33;;;;;;;;;;5108534;28;20040;-80
2023/04/10 14:50:28;;;;;;;6.78;1.65;;;;;;;;;;5104035;28;20048;-80
2023/04/10 14:52:53;;;;;;;7.78;1.27;;;;;;;;;;5091548;28;20368;-81
2023/04/10 14:55:25;;;;;;;9.57;1.92;;;;;;;;;;5110932;28;20085;-81
2023/04/10 14:57:57;;;;;;;9.05;1.52;;;;;;;;;;5112204;28;20051;-81
2023/04/10 15:00:28;;;;;;;11.63;1.67;;;;;;;;;;5086422;28;20416;-80
2023/04/10 15:03:07;;;;;;;7.28;1.27;;;;;;;;;;5075764;28;20077;-81